Time;durP1;ratioP1;P1;durP2;ratioP2;P2;SDS_P1;SDS_P2;PMS_P1;PMS_P2;Temp;Humidity;BMP_temperature;BMP_pressure;BME280_temperature;BME280_humidity;BME280_pressure;Samples;Min_cycle;Max_cycle;Signal;HPM_P1;HPM_P2
2022/10/14 00:01:53;;;;;;;45.38;29.17;;;;;;;14.41;57.34;101571.19;7396941;19;20019;-63
2022/10/14 00:04:18;;;;;;;52.20;29.60;;;;;;;14.36;57.36;101557.69;7395499;19;20018;-62
2022/10/14 00:06:44;;;;;;;53.20;30.45;;;;;;;14.39;57.20;101562.47;7396913;19;19998;-62
2022/10/14 00:09:09;;;;;;;48.75;29.63;;;;;;;14.46;56.80;101550.09;7396321;19;20596;-62
2022/10/14 00:11:36;;;;;;;51.33;30.55;;;;;;;14.44;56.99;101548.50;7394358;19;19999;-62
2022/10/14 00:14:07;;;;;;;49.88;31.55;;;;;;;14.46;56.77;101547.34;7395111;19;20066;-61
2022/10/14 00:16:36;;;;;;;47.08;29.02;;;;;;;14.42;57.02;101542.53;7394969;19;20109;-62
2022/10/14 00:19:02;;;;;;;51.30;30.17;;;;;;;14.44;57.11;101554.00;7393403;19;20002;-62
2022/10/14 00:21:28;;;;;;;46.47;29.02;;;;;;;14.42;56.91;101550.78;7396001;19;20466;-62
2022/10/14 00:23:55;;;;;;;45.22;27.63;;;;;;;14.44;57.04;101556.75;7395526;19;20006;-62
2022/10/14 00:26:27;;;;;;;50.65;30.20;;;;;;;14.46;56.66;101547.34;7397068;19;20001;-61
2022/10/14 00:28:53;;;;;;;51.35;30.48;;;;;;;14.43;56.82;101551.59;7393425;19;20028;-60
2022/10/14 00:31:19;;;;;;;46.75;30.05;;;;;;;14.44;56.98;101551.25;7394350;19;20456;-61
2022/10/14 00:33:45;;;;;;;53.17;29.88;;;;;;;14.42;56.88;101550.78;7394736;19;20399;-61
2022/10/14 00:36:13;;;;;;;49.33;30.00;;;;;;;14.43;56.83;101546.91;7396012;19;20011;-60
2022/10/14 00:38:39;;;;;;;50.13;30.92;;;;;;;14.41;56.85;101549.19;7394449;19;20413;-61
2022/10/14 00:41:05;;;;;;;44.05;28.25;;;;;;;14.46;56.67;101545.38;7395621;19;20003;-61
2022/10/14 00:43:57;;;;;;;52.53;30.55;;;;;;;14.43;57.08;101543.38;7394878;19;20106;-60
2022/10/14 00:46:24;;;;;;;47.83;29.88;;;;;;;14.38;57.22;101552.66;7390625;19;20050;-60
2022/10/14 00:48:50;;;;;;;51.60;29.30;;;;;;;14.39;56.89;101540.50;7392965;19;20042;-61
2022/10/14 00:51:17;;;;;;;54.10;29.67;;;;;;;14.42;56.95;101544.50;7395332;19;20006;-61
2022/10/14 00:53:43;;;;;;;51.05;29.90;;;;;;;14.35;57.06;101539.59;7393065;19;20080;-61
2022/10/14 00:56:11;;;;;;;48.85;29.08;;;;;;;14.41;57.01;101548.38;7396090;19;20503;-61
2022/10/14 00:58:37;;;;;;;47.97;28.73;;;;;;;14.43;56.78;101541.41;7394283;19;20012;-61
2022/10/14 01:01:03;;;;;;;53.00;31.50;;;;;;;14.42;56.96;101550.78;7394982;19;20012;-61
2022/10/14 01:03:29;;;;;;;48.58;29.38;;;;;;;14.42;56.59;101542.53;7395277;19;19990;-61
2022/10/14 01:06:19;;;;;;;47.08;27.92;;;;;;;14.41;56.58;101543.72;7393588;19;19994;-61
2022/10/14 01:08:59;;;;;;;45.42;28.52;;;;;;;14.35;56.88;101549.81;7393538;19;19994;-62
2022/10/14 01:11:32;;;;;;;48.00;28.67;;;;;;;14.36;57.00;101546.72;7394645;19;19995;-61
2022/10/14 01:14:42;;;;;;;53.17;30.33;;;;;;;14.40;56.72;101546.81;7393104;19;20006;-61
2022/10/14 01:17:58;;;;;;;53.30;30.55;;;;;;;14.43;56.69;101544.16;7390348;19;20056;-61
2022/10/14 01:20:48;;;;;;;47.58;29.08;;;;;;;14.36;56.78;101537.66;7389907;19;20002;-61
2022/10/14 01:23:43;;;;;;;46.20;27.50;;;;;;;14.34;56.64;101540.75;7393494;19;20329;-62
2022/10/14 01:26:14;;;;;;;48.55;28.13;;;;;;;14.35;56.72;101545.09;7392438;19;20003;-61
2022/10/14 01:28:48;;;;;;;52.08;29.30;;;;;;;14.35;56.76;101538.81;7394039;19;20009;-61
2022/10/14 01:31:20;;;;;;;57.03;31.65;;;;;;;14.38;56.76;101538.91;7393626;19;20005;-61
2022/10/14 01:33:50;;;;;;;56.42;30.70;;;;;;;14.39;56.72;101535.00;7392718;19;20010;-62
2022/10/14 01:36:21;;;;;;;50.58;30.92;;;;;;;14.40;56.66;101531.13;7394628;19;20002;-62
2022/10/14 01:38:59;;;;;;;51.17;32.05;;;;;;;14.34;56.76;101532.50;7392441;19;20010;-62
2022/10/14 01:41:30;;;;;;;52.05;31.10;;;;;;;14.35;56.55;101533.31;7393908;19;20006;-62
2022/10/14 01:44:02;;;;;;;49.58;31.20;;;;;;;14.30;56.72;101525.34;7392413;19;19998;-62
2022/10/14 01:46:28;;;;;;;50.00;30.40;;;;;;;14.37;56.63;101526.31;7391694;19;20002;-64
2022/10/14 01:49:00;;;;;;;50.60;30.25;;;;;;;14.31;56.58;101522.25;7390934;19;19994;-62
2022/10/14 01:51:31;;;;;;;49.47;31.08;;;;;;;14.36;56.49;101519.25;7393193;19;20329;-62
2022/10/14 01:54:02;;;;;;;53.75;31.52;;;;;;;14.41;56.41;101521.75;7392729;19;20002;-62
2022/10/14 01:56:31;;;;;;;47.42;29.95;;;;;;;14.43;56.35;101516.69;7392084;19;19999;-61
2022/10/14 01:59:00;;;;;;;51.45;30.23;;;;;;;14.39;56.42;101515.78;7390594;19;20054;-61
2022/10/14 02:01:26;;;;;;;55.17;33.67;;;;;;;14.41;56.09;101509.94;7392987;19;19999;-61
2022/10/14 02:03:51;;;;;;;53.00;33.75;;;;;;;14.40;56.43;101506.41;7391904;19;19995;-61
2022/10/14 02:06:26;;;;;;;50.80;30.67;;;;;;;14.35;56.57;101512.16;7392770;19;19995;-61
2022/10/14 02:09:19;;;;;;;51.63;31.92;;;;;;;14.39;56.39;101499.28;7391875;19;20002;-62
2022/10/14 02:12:02;;;;;;;49.75;30.73;;;;;;;14.35;56.47;101500.38;7392119;19;19995;-61
2022/10/14 02:14:30;;;;;;;48.88;30.55;;;;;;;14.31;56.66;101496.72;7391232;19;19995;-62
2022/10/14 02:17:06;;;;;;;48.50;30.60;;;;;;;14.32;56.41;101501.84;7390572;19;19991;-63
2022/10/14 02:19:47;;;;;;;51.90;31.73;;;;;;;14.29;56.47;101497.06;7391063;19;19999;-63
2022/10/14 02:22:26;;;;;;;56.85;34.17;;;;;;;14.30;56.76;101497.88;7392658;19;20002;-61
2022/10/14 02:24:54;;;;;;;55.05;33.42;;;;;;;14.29;56.53;101505.28;7388926;19;19994;-61
2022/10/14 02:27:23;;;;;;;51.92;31.83;;;;;;;14.33;56.37;101499.91;7392800;19;20074;-61
2022/10/14 02:29:51;;;;;;;51.67;31.75;;;;;;;14.34;56.33;101504.25;7391009;19;20002;-62
2022/10/14 02:32:19;;;;;;;52.17;31.45;;;;;;;14.31;56.61;101499.47;7390945;19;20008;-62
2022/10/14 02:34:49;;;;;;;55.13;32.80;;;;;;;14.33;56.48;101503.47;7391098;19;19998;-62
2022/10/14 02:37:16;;;;;;;50.78;30.48;;;;;;;14.33;56.48;101503.47;7391469;19;20003;-62
2022/10/14 02:39:53;;;;;;;60.05;32.92;;;;;;;14.34;56.57;101494.06;7389011;19;19994;-62
2022/10/14 02:42:19;;;;;;;51.08;30.67;;;;;;;14.35;56.46;101501.16;7391874;19;20463;-62
2022/10/14 02:44:57;;;;;;;55.17;32.58;;;;;;;14.30;56.75;101504.16;7388420;19;20016;-62
2022/10/14 02:47:23;;;;;;;51.90;33.00;;;;;;;14.35;56.60;101506.66;7391909;19;20305;-62
2022/10/14 02:49:49;;;;;;;58.47;34.42;;;;;;;14.34;56.31;101507.78;7390932;19;20006;-62
2022/10/14 02:52:15;;;;;;;53.60;32.97;;;;;;;14.31;56.66;101499.47;7390311;19;20696;-62
2022/10/14 02:54:41;;;;;;;52.13;31.55;;;;;;;14.31;56.53;101494.78;7389559;19;19994;-62
2022/10/14 02:57:06;;;;;;;56.50;34.17;;;;;;;14.23;56.76;101493.00;7391083;19;20010;-62
2022/10/14 02:59:32;;;;;;;57.22;32.90;;;;;;;14.20;57.03;101493.69;7390119;19;20016;-62
2022/10/14 03:02:07;;;;;;;61.28;34.80;;;;;;;14.21;56.67;101495.25;7389445;19;20032;-61
2022/10/14 03:04:33;;;;;;;54.40;33.72;;;;;;;14.22;56.86;101488.63;7388023;19;19995;-62
2022/10/14 03:06:59;;;;;;;60.35;34.13;;;;;;;14.25;56.63;101488.72;7388818;19;20011;-62
2022/10/14 03:09:25;;;;;;;53.60;32.72;;;;;;;14.27;56.68;101477.41;7390873;19;20010;-61
2022/10/14 03:11:50;;;;;;;57.38;34.00;;;;;;;14.23;56.54;101473.78;7389888;19;20006;-61
2022/10/14 03:14:16;;;;;;;56.83;33.95;;;;;;;14.28;56.46;101484.50;7389855;19;20046;-61
2022/10/14 03:16:41;;;;;;;52.53;31.60;;;;;;;14.26;56.53;101484.03;7396264;19;20006;-62
2022/10/14 03:19:07;;;;;;;53.72;32.17;;;;;;;14.23;56.76;101479.25;7396768;19;20384;-62
2022/10/14 03:21:32;;;;;;;51.08;32.47;;;;;;;14.17;57.07;101473.19;7397772;19;20042;-62
2022/10/14 03:24:00;;;;;;;59.80;34.75;;;;;;;14.21;56.60;101470.56;7394965;19;20013;-62
2022/10/14 03:26:26;;;;;;;54.30;32.20;;;;;;;14.23;56.70;101476.50;7397834;19;19999;-63
2022/10/14 03:28:51;;;;;;;57.72;33.75;;;;;;;14.19;56.67;101470.91;7395894;19;20398;-62
2022/10/14 03:31:17;;;;;;;55.85;32.95;;;;;;;14.21;56.64;101474.13;7397368;19;20006;-62
2022/10/14 03:33:42;;;;;;;55.80;33.17;;;;;;;14.15;57.06;101470.00;7396768;19;20359;-61
2022/10/14 03:36:08;;;;;;;57.28;34.08;;;;;;;14.18;56.73;101471.28;7398619;19;20318;-62
2022/10/14 03:38:33;;;;;;;59.85;32.83;;;;;;;14.20;56.82;101467.00;7396768;19;20003;-62
2022/10/14 03:40:59;;;;;;;56.50;34.00;;;;;;;14.21;56.46;101467.81;7397092;19;20006;-62
2022/10/14 03:43:24;;;;;;;57.75;34.40;;;;;;;14.21;56.76;101467.81;7396788;19;20344;-62
2022/10/14 03:45:56;;;;;;;57.95;33.70;;;;;;;14.19;56.65;101465.41;7395103;19;19995;-61
2022/10/14 03:48:22;;;;;;;58.50;35.15;;;;;;;14.18;56.79;101460.28;7396478;19;20010;-62
2022/10/14 03:50:47;;;;;;;53.78;32.65;;;;;;;14.16;56.81;101471.63;7396808;19;20032;-62
2022/10/14 03:53:13;;;;;;;55.33;34.65;;;;;;;14.16;56.78;101468.06;7395412;19;20058;-62
2022/10/14 03:55:39;;;;;;;53.92;33.05;;;;;;;14.21;56.66;101470.56;7395740;19;20022;-62
2022/10/14 03:58:05;;;;;;;57.25;35.58;;;;;;;14.20;56.87;101468.97;7396925;19;20394;-62
2022/10/14 04:00:31;;;;;;;55.50;33.75;;;;;;;14.21;56.75;101473.28;7396998;19;20486;-62
2022/10/14 04:02:56;;;;;;;53.35;33.20;;;;;;;14.23;56.46;101471.81;7396715;19;20023;-63
2022/10/14 04:05:22;;;;;;;62.50;36.60;;;;;;;14.21;56.75;101467.81;7393949;19;20003;-63
2022/10/14 04:07:47;;;;;;;63.70;36.58;;;;;;;14.16;56.93;101470.81;7396279;19;20007;-62
2022/10/14 04:10:13;;;;;;;54.42;33.58;;;;;;;14.12;56.94;101470.72;7396590;19;19999;-62
2022/10/14 04:12:39;;;;;;;52.83;33.60;;;;;;;14.21;56.77;101474.13;7394762;19;19999;-62
2022/10/14 04:15:11;;;;;;;57.60;36.17;;;;;;;14.22;56.56;101469.41;7395029;19;20036;-62
2022/10/14 04:17:37;;;;;;;58.63;34.40;;;;;;;14.12;56.90;101469.91;7396157;19;20014;-63
2022/10/14 04:20:03;;;;;;;57.90;35.28;;;;;;;14.21;56.64;101462.31;7393689;19;20121;-62
2022/10/14 04:22:28;;;;;;;59.17;35.95;;;;;;;14.22;56.54;101463.94;7396630;19;20018;-62
2022/10/14 04:24:54;;;;;;;56.30;34.30;;;;;;;14.22;56.80;101459.22;7392381;19;20066;-62
2022/10/14 04:27:20;;;;;;;53.70;33.08;;;;;;;14.24;56.51;101461.63;7391324;19;20078;-62
2022/10/14 04:29:45;;;;;;;57.05;35.58;;;;;;;14.19;56.50;101462.66;7394732;19;20050;-63
2022/10/14 04:32:11;;;;;;;59.25;35.05;;;;;;;14.19;56.82;101459.13;7392816;19;20012;-63
2022/10/14 04:34:36;;;;;;;55.60;35.35;;;;;;;14.22;56.65;101451.00;7394302;19;19998;-63
2022/10/14 04:37:02;;;;;;;58.30;34.38;;;;;;;14.20;56.65;101449.75;7395873;19;20054;-62
2022/10/14 04:39:27;;;;;;;56.97;34.80;;;;;;;14.21;56.56;101454.06;7394807;19;20499;-63
2022/10/14 04:41:53;;;;;;;51.53;33.22;;;;;;;14.22;56.59;101453.72;7395892;19;20343;-62
2022/10/14 04:44:18;;;;;;;54.42;33.70;;;;;;;14.22;56.37;101442.75;7392536;19;20003;-62
2022/10/14 04:46:51;;;;;;;58.85;35.22;;;;;;;14.17;56.84;101448.50;7392356;19;20448;-62
2022/10/14 04:49:16;;;;;;;57.70;35.03;;;;;;;14.15;56.56;101444.53;7394417;19;20019;-62
2022/10/14 04:51:42;;;;;;;61.42;35.67;;;;;;;14.15;56.77;101452.75;7393408;19;20009;-61
2022/10/14 04:54:09;;;;;;;54.45;33.38;;;;;;;14.19;56.51;101456.38;7394102;19;19999;-62
2022/10/14 04:56:35;;;;;;;64.78;37.15;;;;;;;14.17;56.74;101450.44;7394689;19;20468;-63
2022/10/14 04:59:00;;;;;;;58.20;34.35;;;;;;;14.20;56.55;101449.75;7393727;19;20019;-64
2022/10/14 05:01:26;;;;;;;60.47;35.30;;;;;;;14.23;56.38;101443.56;7394504;19;19995;-63
2022/10/14 05:03:52;;;;;;;56.08;34.53;;;;;;;14.25;56.19;101446.75;7393930;19;20102;-63
2022/10/14 05:06:17;;;;;;;59.55;36.60;;;;;;;14.24;56.41;101443.22;7393451;19;20479;-61
2022/10/14 05:08:43;;;;;;;55.67;33.13;;;;;;;14.18;56.55;101439.13;7393558;19;20478;-61
2022/10/14 05:11:08;;;;;;;56.80;34.47;;;;;;;14.24;56.37;101436.91;7392805;19;20349;-60
2022/10/14 05:13:35;;;;;;;58.85;34.20;;;;;;;14.27;56.33;101438.97;7392840;19;20003;-60
2022/10/14 05:16:01;;;;;;;61.22;36.70;;;;;;;14.25;56.38;101441.25;7395214;19;20081;-60
2022/10/14 05:18:27;;;;;;;53.65;33.90;;;;;;;14.25;56.60;101446.75;7393433;19;20021;-63
2022/10/14 05:20:52;;;;;;;56.60;33.65;;;;;;;14.29;56.44;101444.88;7394130;19;20074;-62
2022/10/14 05:23:18;;;;;;;60.78;36.55;;;;;;;14.27;56.59;101452.69;7393670;19;20022;-62
2022/10/14 05:25:44;;;;;;;59.92;35.20;;;;;;;14.23;56.45;101451.81;7394696;19;20002;-62
2022/10/14 05:28:10;;;;;;;57.47;36.15;;;;;;;14.25;56.35;101444.81;7392908;19;20002;-62
2022/10/14 05:30:35;;;;;;;56.25;33.08;;;;;;;14.25;56.70;101441.25;7395010;19;20078;-61
2022/10/14 05:33:01;;;;;;;59.58;35.80;;;;;;;14.27;56.57;101443.66;7391985;19;20015;-62
2022/10/14 05:35:33;;;;;;;61.15;37.10;;;;;;;14.22;56.51;101441.97;7392464;19;20006;-61
2022/10/14 05:37:58;;;;;;;60.80;36.53;;;;;;;14.17;56.83;101445.75;7391809;19;20126;-61
2022/10/14 05:40:24;;;;;;;57.50;33.83;;;;;;;14.18;56.63;101454.81;7394220;19;19999;-61
2022/10/14 05:42:49;;;;;;;57.38;35.13;;;;;;;14.21;56.63;101454.06;7393064;19;20111;-61
2022/10/14 05:45:15;;;;;;;64.85;37.50;;;;;;;14.09;56.81;101449.44;7392000;19;20454;-60
2022/10/14 05:47:44;;;;;;;63.08;36.13;;;;;;;14.05;56.79;101441.13;7393789;19;20023;-60
2022/10/14 05:50:10;;;;;;;62.83;35.38;;;;;;;14.13;56.96;101444.06;7392549;19;20483;-61
2022/10/14 05:52:36;;;;;;;63.97;36.67;;;;;;;14.19;56.66;101437.16;7392400;19;20009;-61
2022/10/14 05:55:02;;;;;;;67.95;38.72;;;;;;;14.10;56.77;101434.59;7391572;19;19994;-61
2022/10/14 05:57:27;;;;;;;63.13;36.53;;;;;;;13.98;57.20;101431.91;7392818;19;20006;-60
2022/10/14 05:59:53;;;;;;;67.38;37.88;;;;;;;14.12;56.73;101431.50;7392755;19;20073;-60
2022/10/14 06:02:19;;;;;;;68.32;36.35;;;;;;;14.18;56.73;101424.59;7393361;19;20019;-60
2022/10/14 06:04:44;;;;;;;69.68;38.70;;;;;;;14.09;57.04;101422.00;7389618;19;19995;-60
2022/10/14 06:07:10;;;;;;;66.13;36.10;;;;;;;14.13;56.88;101431.16;7392806;19;20007;-60
2022/10/14 06:09:36;;;;;;;66.05;36.03;;;;;;;14.12;57.03;101434.25;7393037;19;20002;-61
2022/10/14 06:12:03;;;;;;;64.07;36.05;;;;;;;14.16;56.65;101435.13;7389943;19;20756;-60
2022/10/14 06:14:29;;;;;;;66.15;37.00;;;;;;;14.08;56.78;101431.41;7392058;19;20011;-63
2022/10/14 06:16:54;;;;;;;70.15;37.00;;;;;;;14.11;56.97;101429.88;7392265;19;20360;-61
2022/10/14 06:19:20;;;;;;;67.07;35.55;;;;;;;14.13;57.03;101427.59;7391263;19;20002;-64
2022/10/14 06:21:45;;;;;;;65.30;36.13;;;;;;;14.13;56.78;101433.06;7391701;19;19995;-63
2022/10/14 06:24:11;;;;;;;74.25;37.42;;;;;;;14.05;57.11;101432.88;7390947;19;20013;-63
2022/10/14 06:26:37;;;;;;;67.00;36.17;;;;;;;14.11;56.84;101433.44;7392162;19;20007;-63
2022/10/14 06:29:02;;;;;;;68.25;35.25;;;;;;;14.19;56.77;101428.94;7390903;19;20036;-63
2022/10/14 06:31:28;;;;;;;74.32;37.78;;;;;;;14.19;56.68;101428.94;7391627;19;19997;-63
2022/10/14 06:33:53;;;;;;;66.57;36.28;;;;;;;14.10;56.77;101425.56;7390917;19;19999;-63
2022/10/14 06:36:19;;;;;;;72.65;36.88;;;;;;;14.15;56.95;101436.28;7390057;19;20003;-64
2022/10/14 06:38:45;;;;;;;67.22;34.92;;;;;;;14.15;57.06;101436.28;7390243;19;19998;-64
2022/10/14 06:41:10;;;;;;;66.22;37.85;;;;;;;14.07;57.00;101436.06;7391651;19;20017;-63
2022/10/14 06:43:36;;;;;;;67.75;35.17;;;;;;;14.11;56.93;101430.69;7389292;19;20032;-63
2022/10/14 06:46:02;;;;;;;70.00;36.28;;;;;;;14.08;56.89;101431.41;7387855;19;20003;-64
2022/10/14 06:48:28;;;;;;;65.45;35.15;;;;;;;14.13;56.72;101422.09;7388859;19;20363;-64
2022/10/14 06:50:54;;;;;;;69.10;35.25;;;;;;;14.14;56.56;101419.00;7387740;19;20070;-64
2022/10/14 06:53:19;;;;;;;66.10;33.78;;;;;;;14.20;56.59;101422.31;7389530;19;20022;-64
2022/10/14 06:55:45;;;;;;;70.32;36.80;;;;;;;14.22;56.38;101422.75;7390475;19;20001;-64
2022/10/14 06:58:11;;;;;;;62.28;34.03;;;;;;;14.25;56.22;101417.34;7388841;19;19998;-64
2022/10/14 07:00:36;;;;;;;67.82;34.70;;;;;;;14.31;56.14;101422.56;7391373;19;19998;-64
2022/10/14 07:03:02;;;;;;;62.97;32.90;;;;;;;14.32;56.30;101419.47;7389520;19;20003;-63
2022/10/14 07:05:28;;;;;;;62.28;34.10;;;;;;;14.24;56.27;101425.94;7389008;19;20610;-63
2022/10/14 07:07:56;;;;;;;62.53;34.78;;;;;;;14.26;55.92;101415.38;7390107;19;20006;-64
2022/10/14 07:10:21;;;;;;;62.45;32.35;;;;;;;14.35;55.94;101413.28;7391592;19;20026;-64
2022/10/14 07:12:47;;;;;;;59.60;31.77;;;;;;;14.41;55.96;101417.38;7388569;19;20003;-64
2022/10/14 07:15:13;;;;;;;61.70;32.08;;;;;;;14.37;56.02;101410.97;7387540;19;20034;-64
2022/10/14 07:17:38;;;;;;;59.28;32.30;;;;;;;14.31;56.03;101412.41;7389621;19;20006;-64
2022/10/14 07:20:04;;;;;;;58.40;31.48;;;;;;;14.27;56.08;101417.00;7388217;19;19999;-64
2022/10/14 07:22:30;;;;;;;53.35;31.35;;;;;;;14.21;56.15;101412.91;7388909;19;20011;-64
2022/10/14 07:24:56;;;;;;;56.00;32.00;;;;;;;14.18;56.21;101416.38;7389693;19;20321;-64
2022/10/14 07:27:21;;;;;;;56.15;31.13;;;;;;;14.13;56.46;101422.91;7389783;19;19995;-64
2022/10/14 07:29:47;;;;;;;54.05;30.35;;;;;;;14.14;56.17;101413.50;7385479;19;20428;-65
2022/10/14 07:32:12;;;;;;;51.15;28.83;;;;;;;14.22;56.02;101409.00;7389469;19;19999;-64
2022/10/14 07:34:38;;;;;;;53.55;28.77;;;;;;;14.26;55.98;101409.91;7388710;19;19999;-64
2022/10/14 07:37:04;;;;;;;56.97;29.35;;;;;;;14.30;55.78;101416.28;7389569;19;20104;-64
2022/10/14 07:39:29;;;;;;;57.30;31.58;;;;;;;14.30;55.53;101419.03;7389163;19;20013;-65
2022/10/14 07:41:55;;;;;;;50.85;27.52;;;;;;;14.33;55.57;101414.78;7388136;19;19991;-65
2022/10/14 07:44:20;;;;;;;49.25;26.83;;;;;;;14.35;55.68;101427.03;7387131;19;20023;-65
2022/10/14 07:46:46;;;;;;;53.05;29.55;;;;;;;14.30;55.60;101424.53;7386108;19;20006;-65
2022/10/14 07:49:17;;;;;;;50.35;27.92;;;;;;;14.30;56.00;101418.25;7388748;19;20006;-65
2022/10/14 07:51:44;;;;;;;50.78;28.85;;;;;;;14.46;55.36;101416.28;7390019;19;20012;-65
2022/10/14 07:54:15;;;;;;;54.10;29.55;;;;;;;14.42;55.42;101424.44;7387976;19;20002;-65
2022/10/14 07:56:43;;;;;;;52.78;28.67;;;;;;;14.51;55.30;101423.47;7389478;19;20411;-65
2022/10/14 07:59:09;;;;;;;48.42;27.65;;;;;;;14.49;55.32;101417.56;7387914;19;20023;-66
2022/10/14 08:01:34;;;;;;;46.53;27.10;;;;;;;14.57;55.26;101424.81;7391753;19;20040;-66
2022/10/14 08:04:00;;;;;;;52.63;28.73;;;;;;;14.58;55.07;101413.50;7393680;19;19999;-66
2022/10/14 08:06:26;;;;;;;51.33;27.60;;;;;;;14.57;55.15;101416.59;7397767;19;19991;-65
2022/10/14 08:08:51;;;;;;;51.85;27.45;;;;;;;14.61;55.11;101418.28;7396149;19;20007;-66
2022/10/14 08:11:21;;;;;;;49.22;26.73;;;;;;;14.74;54.96;101413.47;7396841;19;19999;-65
2022/10/14 08:13:47;;;;;;;49.90;26.63;;;;;;;14.77;54.76;101410.06;7393032;19;20002;-65
2022/10/14 08:16:24;;;;;;;48.97;25.65;;;;;;;14.86;54.49;101409.06;7394446;19;19990;-65
2022/10/14 08:18:50;;;;;;;53.97;27.23;;;;;;;14.77;54.44;101407.31;7395147;19;20023;-65
2022/10/14 08:21:17;;;;;;;49.72;26.17;;;;;;;14.86;54.32;101406.31;7394619;19;19999;-65
2022/10/14 08:23:43;;;;;;;48.60;25.88;;;;;;;14.97;54.10;101399.13;7393830;19;20058;-65
2022/10/14 08:26:20;;;;;;;48.72;26.98;;;;;;;15.00;54.03;101401.19;7394529;19;20379;-65
2022/10/14 08:28:46;;;;;;;44.17;25.10;;;;;;;15.05;53.74;101400.91;7393044;19;20439;-65
2022/10/14 08:31:12;;;;;;;44.38;24.02;;;;;;;15.01;53.68;101394.50;7395631;19;20450;-65
2022/10/14 08:33:38;;;;;;;42.33;24.15;;;;;;;15.07;53.52;101398.59;7393337;19;19994;-65
2022/10/14 08:36:04;;;;;;;45.75;24.98;;;;;;;15.13;53.38;101394.41;7395196;19;19995;-66
2022/10/14 08:38:29;;;;;;;45.38;23.73;;;;;;;14.93;53.60;101403.72;7395104;19;20002;-65
2022/10/14 08:41:10;;;;;;;40.92;23.00;;;;;;;14.89;53.57;101400.13;7395327;19;20005;-66
2022/10/14 08:43:42;;;;;;;44.00;23.75;;;;;;;14.84;53.45;101401.19;7395925;19;20015;-66
2022/10/14 08:46:29;;;;;;;40.90;22.10;;;;;;;14.83;53.20;101399.59;7394279;19;20002;-65
2022/10/14 08:49:30;;;;;;;39.63;22.33;;;;;;;14.94;53.02;101403.38;7394667;19;20023;-65
2022/10/14 08:52:08;;;;;;;40.30;22.30;;;;;;;14.95;52.88;101401.44;7393181;19;20015;-66
2022/10/14 08:54:38;;;;;;;41.67;21.70;;;;;;;15.11;52.48;101401.41;7393823;19;20006;-65
2022/10/14 08:57:04;;;;;;;38.65;20.63;;;;;;;15.12;52.53;101400.25;7394012;19;20015;-66
2022/10/14 08:59:36;;;;;;;38.58;20.92;;;;;;;15.15;52.17;101394.06;7395236;19;20066;-65
2022/10/14 09:02:14;;;;;;;35.97;19.90;;;;;;;15.13;51.92;101391.66;7395011;19;20006;-66
2022/10/14 09:04:40;;;;;;;35.92;19.77;;;;;;;15.17;51.91;101403.53;7394443;19;20007;-66
2022/10/14 09:07:10;;;;;;;37.70;19.77;;;;;;;15.12;51.82;101414.00;7394150;19;20037;-65
2022/10/14 09:09:42;;;;;;;36.38;19.33;;;;;;;15.13;51.53;101410.09;7394049;19;20143;-66
2022/10/14 09:12:14;;;;;;;36.72;19.92;;;;;;;15.28;51.60;101395.53;7393200;19;20010;-66
2022/10/14 09:14:47;;;;;;;39.78;19.95;;;;;;;15.41;51.43;101396.19;7391488;19;20050;-66
2022/10/14 09:17:28;;;;;;;34.37;19.93;;;;;;;15.48;51.24;101395.53;7394807;19;20043;-66
2022/10/14 09:20:04;;;;;;;35.83;19.25;;;;;;;15.43;50.67;101395.81;7393710;19;20007;-66
2022/10/14 09:22:30;;;;;;;33.53;19.30;;;;;;;15.28;50.92;101400.22;7394012;19;19998;-66
2022/10/14 09:24:57;;;;;;;34.65;19.23;;;;;;;15.30;50.93;101389.66;7392774;19;19991;-66
2022/10/14 09:27:23;;;;;;;32.33;18.27;;;;;;;15.14;51.26;101386.94;7394408;19;20054;-66
2022/10/14 09:30:03;;;;;;;33.25;19.00;;;;;;;15.14;50.83;101390.50;7393316;19;19998;-66
2022/10/14 09:32:53;;;;;;;35.67;19.25;;;;;;;15.15;50.75;101389.34;7392275;19;20467;-65
2022/10/14 09:35:21;;;;;;;31.27;18.73;;;;;;;15.25;50.99;101393.50;7390836;19;20363;-66
2022/10/14 09:37:46;;;;;;;32.47;17.45;;;;;;;15.31;50.73;101391.25;7394673;19;19999;-66
2022/10/14 09:40:12;;;;;;;33.72;18.55;;;;;;;15.34;50.76;101388.56;7393170;19;20007;-66
2022/10/14 09:42:54;;;;;;;30.92;17.35;;;;;;;15.32;49.95;101384.59;7394295;19;19995;-66
2022/10/14 09:45:22;;;;;;;31.50;18.77;;;;;;;15.33;50.50;101386.19;7390259;19;20474;-66
2022/10/14 09:47:58;;;;;;;31.73;17.92;;;;;;;15.27;50.56;101379.38;7393248;19;20044;-66
2022/10/14 09:50:23;;;;;;;31.90;18.63;;;;;;;15.23;50.62;101376.56;7392369;19;20423;-66
2022/10/14 09:52:58;;;;;;;30.83;18.55;;;;;;;15.45;50.13;101369.56;7390753;19;20036;-65
2022/10/14 09:55:24;;;;;;;32.38;18.02;;;;;;;15.57;49.79;101371.38;7390914;19;19998;-65
2022/10/14 09:58:07;;;;;;;32.38;18.98;;;;;;;15.51;49.82;101373.63;7393407;19;20459;-65
2022/10/14 10:00:35;;;;;;;32.03;18.42;;;;;;;15.52;49.88;101374.41;7392670;19;19995;-65
2022/10/14 10:03:01;;;;;;;32.05;18.42;;;;;;;15.30;50.50;101375.91;7392914;19;19995;-65
2022/10/14 10:05:29;;;;;;;29.42;17.98;;;;;;;15.16;50.68;101368.94;7390499;19;20031;-65
2022/10/14 10:08:00;;;;;;;33.20;18.60;;;;;;;15.22;50.72;101371.41;7392174;19;19999;-65
2022/10/14 10:10:29;;;;;;;29.48;17.63;;;;;;;15.31;50.39;101372.00;7392610;19;19998;-65
2022/10/14 10:12:56;;;;;;;31.20;17.42;;;;;;;15.25;50.57;101367.94;7391235;19;20015;-65
2022/10/14 10:15:21;;;;;;;30.20;16.70;;;;;;;15.25;50.70;101365.19;7390998;19;19999;-65
2022/10/14 10:17:48;;;;;;;28.33;16.88;;;;;;;15.43;50.09;101360.88;7391895;19;20017;-65
2022/10/14 10:20:14;;;;;;;27.50;16.08;;;;;;;15.55;49.93;101362.69;7392131;19;19995;-65
2022/10/14 10:22:40;;;;;;;27.83;15.70;;;;;;;15.53;49.80;101352.03;7392488;19;20054;-66
2022/10/14 10:25:09;;;;;;;24.30;14.65;;;;;;;15.44;49.71;101347.91;7390744;19;20476;-65
2022/10/14 10:27:46;;;;;;;25.15;14.88;;;;;;;15.39;49.87;101343.50;7389562;19;20003;-65
2022/10/14 10:30:29;;;;;;;25.83;14.27;;;;;;;15.55;49.38;101344.22;7391802;19;19995;-65
2022/10/14 10:33:11;;;;;;;23.10;13.52;;;;;;;15.74;49.07;101350.91;7389188;19;20030;-66
2022/10/14 10:35:48;;;;;;;25.17;13.32;;;;;;;15.67;49.35;101342.50;7392259;19;20006;-66
2022/10/14 10:38:19;;;;;;;24.15;13.43;;;;;;;15.44;49.37;101339.66;7391131;19;19998;-65
2022/10/14 10:41:18;;;;;;;24.17;13.82;;;;;;;15.50;49.12;101350.00;7389822;19;20010;-65
2022/10/14 10:44:16;;;;;;;22.02;12.57;;;;;;;15.68;48.98;101338.59;7391301;19;20023;-66
2022/10/14 10:47:01;;;;;;;25.67;12.95;;;;;;;15.82;48.69;101343.59;7389058;19;20015;-66
2022/10/14 10:49:37;;;;;;;22.38;12.75;;;;;;;15.85;48.72;101329.09;7388427;19;20007;-66
2022/10/14 10:52:27;;;;;;;23.02;13.25;;;;;;;16.00;48.22;101327.38;7391764;19;20027;-65
2022/10/14 10:54:59;;;;;;;24.73;14.27;;;;;;;15.98;48.36;101327.78;7389308;19;20009;-66
2022/10/14 10:57:44;;;;;;;22.35;12.43;;;;;;;15.98;48.63;101322.25;7390343;19;20006;-66
2022/10/14 11:00:19;;;;;;;24.13;13.05;;;;;;;16.03;48.59;101321.13;7390759;19;20007;-66
2022/10/14 11:03:09;;;;;;;23.85;14.18;;;;;;;16.03;48.43;101312.88;7391214;19;20022;-65
2022/10/14 11:05:49;;;;;;;24.33;13.55;;;;;;;16.04;48.64;101312.50;7389345;19;19995;-66
2022/10/14 11:12:11;;;;;;;24.90;13.18;;;;;;;16.01;48.62;101310.50;7390327;19;20010;-66
2022/10/14 11:14:40;;;;;;;23.67;13.38;;;;;;;16.02;48.33;101300.28;7388582;19;19999;-66
2022/10/14 11:17:14;;;;;;;23.33;13.25;;;;;;;16.05;48.23;101307.81;7391400;19;20507;-67
2022/10/14 11:19:59;;;;;;;24.02;13.70;;;;;;;16.05;47.93;101307.81;7389837;19;20044;-66
2022/10/14 11:22:50;;;;;;;22.40;12.50;;;;;;;16.02;48.41;101309.34;7390947;19;20025;-66
2022/10/14 11:25:30;;;;;;;22.88;13.30;;;;;;;16.04;48.49;101306.22;7388117;19;20539;-66